Time;durP1;ratioP1;P1;durP2;ratioP2;P2;SDS_P1;SDS_P2;PMS_P1;PMS_P2;Temp;Humidity;BMP_temperature;BMP_pressure;BME280_temperature;BME280_humidity;BME280_pressure;Samples;Min_cycle;Max_cycle;Signal;HPM_P1;HPM_P2
2023/10/28 00:02:24;;;;;;;1.63;0.50;;;;;;;;;;4971026;28;20864;-67
2023/10/28 00:04:49;;;;;;;1.88;0.40;;;;;;;;;;4970501;28;20153;-67
2023/10/28 00:07:15;;;;;;;2.33;0.60;;;;;;;;;;4965261;28;20088;-67
2023/10/28 00:09:40;;;;;;;0.95;0.40;;;;;;;;;;4965523;28;20136;-67
2023/10/28 00:12:08;;;;;;;1.42;0.50;;;;;;;;;;4969378;28;20141;-66
2023/10/28 00:14:33;;;;;;;1.05;0.40;;;;;;;;;;4970145;28;20029;-66
2023/10/28 00:16:59;;;;;;;2.55;0.63;;;;;;;;;;4971643;28;20829;-67
2023/10/28 00:19:24;;;;;;;3.08;0.60;;;;;;;;;;4968446;28;20811;-67
2023/10/28 00:21:49;;;;;;;2.20;0.47;;;;;;;;;;4968657;28;20034;-66
2023/10/28 00:24:14;;;;;;;3.60;0.63;;;;;;;;;;4971696;28;20041;-67
2023/10/28 00:26:40;;;;;;;2.00;0.60;;;;;;;;;;4971633;28;20034;-67
2023/10/28 00:29:05;;;;;;;1.48;0.57;;;;;;;;;;4971643;28;20825;-67
2023/10/28 00:31:31;;;;;;;2.08;0.38;;;;;;;;;;4972037;28;20814;-68
2023/10/28 00:33:56;;;;;;;1.23;0.60;;;;;;;;;;4975173;28;20902;-65
2023/10/28 00:36:22;;;;;;;1.45;0.55;;;;;;;;;;4968751;28;20943;-65
2023/10/28 00:38:47;;;;;;;2.88;0.65;;;;;;;;;;4968299;28;21065;-65
2023/10/28 00:41:13;;;;;;;1.60;0.63;;;;;;;;;;4968673;28;20104;-65
2023/10/28 00:43:38;;;;;;;2.17;0.68;;;;;;;;;;4962296;28;20888;-65
2023/10/28 00:46:07;;;;;;;1.13;0.40;;;;;;;;;;4967872;28;20022;-65
2023/10/28 00:48:32;;;;;;;1.60;0.57;;;;;;;;;;4967278;28;20092;-65
2023/10/28 00:50:58;;;;;;;2.50;0.55;;;;;;;;;;4965221;28;20144;-65
2023/10/28 00:53:24;;;;;;;2.45;0.68;;;;;;;;;;4964097;28;20495;-65
2023/10/28 00:55:51;;;;;;;1.00;0.40;;;;;;;;;;4968325;28;20025;-65
2023/10/28 00:58:18;;;;;;;1.35;0.50;;;;;;;;;;4955899;28;20088;-65
2023/10/28 01:00:44;;;;;;;1.30;0.50;;;;;;;;;;4966962;28;20030;-65
2023/10/28 01:03:09;;;;;;;1.10;0.57;;;;;;;;;;4967398;28;20128;-65
2023/10/28 01:05:35;;;;;;;1.20;0.38;;;;;;;;;;4968291;28;20026;-65
2023/10/28 01:08:00;;;;;;;2.95;0.80;;;;;;;;;;4963499;28;20887;-65
2023/10/28 01:10:26;;;;;;;1.77;0.60;;;;;;;;;;4969453;28;20025;-64
2023/10/28 01:12:51;;;;;;;1.40;0.47;;;;;;;;;;4969321;28;20074;-65
2023/10/28 01:15:16;;;;;;;1.27;0.60;;;;;;;;;;4963621;28;20132;-64
2023/10/28 01:17:42;;;;;;;2.40;0.77;;;;;;;;;;4967377;28;20062;-64
2023/10/28 01:20:10;;;;;;;1.30;0.57;;;;;;;;;;4966472;28;20030;-64
2023/10/28 01:22:35;;;;;;;1.98;0.50;;;;;;;;;;4968485;28;20026;-66
2023/10/28 01:25:00;;;;;;;1.75;0.40;;;;;;;;;;4966656;28;20890;-64
2023/10/28 01:27:26;;;;;;;0.93;0.40;;;;;;;;;;4969737;28;20084;-64
2023/10/28 01:29:51;;;;;;;1.80;0.52;;;;;;;;;;4967877;28;20068;-66
2023/10/28 01:32:17;;;;;;;0.88;0.30;;;;;;;;;;4969260;28;20033;-65
2023/10/28 01:34:51;;;;;;;0.63;0.30;;;;;;;;;;4963554;28;20022;-66
2023/10/28 01:37:17;;;;;;;1.05;0.30;;;;;;;;;;4951162;28;20043;-65
2023/10/28 01:39:51;;;;;;;0.47;0.22;;;;;;;;;;4965829;28;20057;-65
2023/10/28 01:42:18;;;;;;;0.98;0.50;;;;;;;;;;4968028;28;20022;-65
2023/10/28 01:44:45;;;;;;;1.20;0.50;;;;;;;;;;4969096;28;20776;-65
2023/10/28 01:47:10;;;;;;;2.88;0.45;;;;;;;;;;4967788;28;20057;-64
2023/10/28 01:49:36;;;;;;;1.15;0.35;;;;;;;;;;4969253;28;20026;-64
2023/10/28 01:52:03;;;;;;;4.10;0.77;;;;;;;;;;4965624;28;20076;-64
2023/10/28 01:54:28;;;;;;;2.08;0.40;;;;;;;;;;4967526;28;20026;-64
2023/10/28 01:56:54;;;;;;;1.33;0.30;;;;;;;;;;4967494;28;20279;-64
2023/10/28 01:59:20;;;;;;;1.33;0.50;;;;;;;;;;4968384;28;20215;-64
2023/10/28 02:01:45;;;;;;;0.85;0.30;;;;;;;;;;4967840;28;20040;-64
2023/10/28 02:04:10;;;;;;;1.98;0.65;;;;;;;;;;4968051;28;20021;-64
2023/10/28 02:06:36;;;;;;;6.80;0.67;;;;;;;;;;4966980;28;20088;-66
2023/10/28 02:09:02;;;;;;;1.98;0.70;;;;;;;;;;4966525;28;20335;-64
2023/10/28 02:11:28;;;;;;;4.38;0.85;;;;;;;;;;4966700;28;20037;-66
2023/10/28 02:13:54;;;;;;;1.85;0.55;;;;;;;;;;4969475;28;20135;-65
2023/10/28 02:16:20;;;;;;;2.00;0.45;;;;;;;;;;4968096;28;20802;-65
2023/10/28 02:18:47;;;;;;;1.48;0.70;;;;;;;;;;4969953;28;20251;-65
2023/10/28 02:21:12;;;;;;;4.03;0.90;;;;;;;;;;4968142;28;20030;-66
2023/10/28 02:23:38;;;;;;;2.42;0.95;;;;;;;;;;4973638;28;20842;-65
2023/10/28 02:26:03;;;;;;;1.80;0.70;;;;;;;;;;4967481;28;20018;-66
2023/10/28 02:28:29;;;;;;;2.33;0.70;;;;;;;;;;4966642;28;20022;-66
2023/10/28 02:30:54;;;;;;;4.70;1.10;;;;;;;;;;4969133;28;20064;-66
2023/10/28 02:33:19;;;;;;;2.87;0.63;;;;;;;;;;4968514;28;20898;-66
2023/10/28 02:35:44;;;;;;;2.45;1.00;;;;;;;;;;4965967;28;21198;-65
2023/10/28 02:38:10;;;;;;;1.90;0.88;;;;;;;;;;4967691;28;20026;-65
2023/10/28 02:40:35;;;;;;;2.80;1.00;;;;;;;;;;4973689;28;20058;-66
2023/10/28 02:43:01;;;;;;;3.53;1.27;;;;;;;;;;4966682;28;21182;-66
2023/10/28 02:45:26;;;;;;;3.88;0.93;;;;;;;;;;4963800;28;20779;-66
2023/10/28 02:47:51;;;;;;;2.13;0.82;;;;;;;;;;4966743;28;20148;-66
2023/10/28 02:50:18;;;;;;;2.30;0.90;;;;;;;;;;4961175;28;20843;-66
2023/10/28 02:52:43;;;;;;;1.67;0.80;;;;;;;;;;4957305;28;20273;-66
2023/10/28 02:55:09;;;;;;;1.75;0.82;;;;;;;;;;4967767;28;20116;-65
2023/10/28 02:57:34;;;;;;;4.00;1.08;;;;;;;;;;4968026;28;20137;-66
2023/10/28 02:59:59;;;;;;;1.90;1.00;;;;;;;;;;4966259;28;20565;-66
2023/10/28 03:02:25;;;;;;;2.73;1.10;;;;;;;;;;4969712;28;21223;-66
2023/10/28 03:04:50;;;;;;;3.30;1.45;;;;;;;;;;4975256;28;21202;-65
2023/10/28 03:07:15;;;;;;;3.03;0.95;;;;;;;;;;4969060;28;20872;-65
2023/10/28 03:09:41;;;;;;;3.20;0.73;;;;;;;;;;4971319;28;20021;-65
2023/10/28 03:12:06;;;;;;;4.53;0.90;;;;;;;;;;4969969;28;20269;-65
2023/10/28 03:14:31;;;;;;;2.97;1.00;;;;;;;;;;4970569;28;20915;-65
2023/10/28 03:16:56;;;;;;;3.38;0.98;;;;;;;;;;4970791;28;20045;-65
2023/10/28 03:19:22;;;;;;;3.92;1.15;;;;;;;;;;4967867;28;20083;-64
2023/10/28 03:21:47;;;;;;;3.10;1.10;;;;;;;;;;4962353;28;20028;-65
2023/10/28 03:24:12;;;;;;;2.40;1.10;;;;;;;;;;4969950;28;20292;-64
2023/10/28 03:26:38;;;;;;;2.97;1.30;;;;;;;;;;4968741;28;20383;-64
2023/10/28 03:29:04;;;;;;;5.47;1.35;;;;;;;;;;4970196;28;20021;-64
2023/10/28 03:31:29;;;;;;;4.45;1.50;;;;;;;;;;4971035;28;20084;-65
2023/10/28 03:33:54;;;;;;;2.40;1.10;;;;;;;;;;4971230;28;20219;-65
2023/10/28 03:36:20;;;;;;;2.23;1.07;;;;;;;;;;4970963;28;20091;-65
2023/10/28 03:38:45;;;;;;;2.72;1.20;;;;;;;;;;4969701;28;20281;-65
2023/10/28 03:41:11;;;;;;;2.65;0.80;;;;;;;;;;4969562;28;20824;-65
2023/10/28 03:43:37;;;;;;;2.15;1.02;;;;;;;;;;4969438;28;20022;-65
2023/10/28 03:46:03;;;;;;;1.95;1.00;;;;;;;;;;4968133;28;20033;-65
2023/10/28 03:48:28;;;;;;;3.55;1.00;;;;;;;;;;4969100;28;20021;-65
2023/10/28 03:51:01;;;;;;;5.35;1.33;;;;;;;;;;4969718;28;20886;-65
2023/10/28 03:53:27;;;;;;;3.13;1.25;;;;;;;;;;4969899;28;20030;-65
2023/10/28 03:55:52;;;;;;;3.95;1.35;;;;;;;;;;4970081;28;20040;-64
2023/10/28 03:58:17;;;;;;;2.67;1.05;;;;;;;;;;4970613;28;20030;-65
2023/10/28 04:00:43;;;;;;;3.40;1.20;;;;;;;;;;4965561;28;20026;-64
2023/10/28 04:03:08;;;;;;;5.47;1.30;;;;;;;;;;4977674;28;20025;-64
2023/10/28 04:05:33;;;;;;;1.92;0.82;;;;;;;;;;4971389;28;20030;-64
2023/10/28 04:07:58;;;;;;;1.50;0.80;;;;;;;;;;4973942;28;20061;-64
2023/10/28 04:10:24;;;;;;;2.40;0.87;;;;;;;;;;4972623;28;20273;-64
2023/10/28 04:12:50;;;;;;;2.38;1.00;;;;;;;;;;4970075;28;20300;-65
2023/10/28 04:15:16;;;;;;;7.03;1.58;;;;;;;;;;4967580;28;20034;-64
2023/10/28 04:17:41;;;;;;;4.53;1.10;;;;;;;;;;4968931;28;20022;-64
2023/10/28 04:20:07;;;;;;;3.13;1.33;;;;;;;;;;4967072;28;20057;-64
2023/10/28 04:22:32;;;;;;;1.60;0.82;;;;;;;;;;4969053;28;20061;-64
2023/10/28 04:24:58;;;;;;;1.63;0.52;;;;;;;;;;4966764;28;20033;-64
2023/10/28 04:27:23;;;;;;;1.73;0.70;;;;;;;;;;4968988;28;20970;-64
2023/10/28 04:29:50;;;;;;;2.08;1.08;;;;;;;;;;4963592;28;20028;-64
2023/10/28 04:32:17;;;;;;;3.75;0.85;;;;;;;;;;4968209;28;20029;-64
2023/10/28 04:34:43;;;;;;;3.40;0.80;;;;;;;;;;4970845;28;20018;-63
2023/10/28 04:37:08;;;;;;;3.38;0.90;;;;;;;;;;4970595;28;20041;-64
2023/10/28 04:39:34;;;;;;;2.63;1.05;;;;;;;;;;4968942;28;20021;-63
2023/10/28 04:41:59;;;;;;;2.92;0.93;;;;;;;;;;4967284;28;21033;-65
2023/10/28 04:44:24;;;;;;;3.63;0.97;;;;;;;;;;4968430;28;20085;-64
2023/10/28 04:46:49;;;;;;;1.90;0.70;;;;;;;;;;4970116;28;20275;-64
2023/10/28 04:49:15;;;;;;;3.07;0.97;;;;;;;;;;4969065;28;20264;-65
2023/10/28 04:51:40;;;;;;;2.08;0.75;;;;;;;;;;4966439;28;20291;-64
2023/10/28 04:54:06;;;;;;;1.73;0.70;;;;;;;;;;4968905;28;20022;-64
2023/10/28 04:56:32;;;;;;;2.50;0.70;;;;;;;;;;4966885;28;20072;-64
2023/10/28 04:58:57;;;;;;;1.45;0.73;;;;;;;;;;4967130;28;20026;-64
2023/10/28 05:01:23;;;;;;;2.72;0.85;;;;;;;;;;4969563;28;20141;-64
2023/10/28 05:03:49;;;;;;;2.58;0.85;;;;;;;;;;4962931;28;20068;-64
2023/10/28 05:06:15;;;;;;;1.50;0.75;;;;;;;;;;4961225;28;20026;-64
2023/10/28 05:08:40;;;;;;;1.88;0.80;;;;;;;;;;4969652;28;20026;-65
2023/10/28 05:11:05;;;;;;;4.57;1.10;;;;;;;;;;4969120;28;20026;-65
2023/10/28 05:13:30;;;;;;;2.15;0.80;;;;;;;;;;4967668;28;20315;-65
2023/10/28 05:15:56;;;;;;;2.55;0.80;;;;;;;;;;4968225;28;20077;-65
2023/10/28 05:18:21;;;;;;;1.83;0.90;;;;;;;;;;4968410;28;20062;-63
2023/10/28 05:20:46;;;;;;;1.27;0.50;;;;;;;;;;4969133;28;20026;-64
2023/10/28 05:23:13;;;;;;;2.83;0.80;;;;;;;;;;4970939;28;20868;-64
2023/10/28 05:25:38;;;;;;;3.03;0.50;;;;;;;;;;4968747;28;20288;-64
2023/10/28 05:28:03;;;;;;;2.80;0.82;;;;;;;;;;4967720;28;20049;-64
2023/10/28 05:30:29;;;;;;;1.83;0.77;;;;;;;;;;4966746;28;20027;-66
2023/10/28 05:32:54;;;;;;;2.53;0.80;;;;;;;;;;4968407;28;20040;-65
2023/10/28 05:35:19;;;;;;;1.73;0.70;;;;;;;;;;4967516;28;20095;-65
2023/10/28 05:37:45;;;;;;;1.97;0.60;;;;;;;;;;4969360;28;20354;-65
2023/10/28 05:40:13;;;;;;;4.68;1.08;;;;;;;;;;4968188;28;20284;-65
2023/10/28 05:42:38;;;;;;;2.13;0.98;;;;;;;;;;4968155;28;20017;-64
2023/10/28 05:45:03;;;;;;;1.95;0.70;;;;;;;;;;4969098;28;20150;-65
2023/10/28 05:47:29;;;;;;;0.80;0.32;;;;;;;;;;4969334;28;20026;-64
2023/10/28 05:49:55;;;;;;;4.80;1.17;;;;;;;;;;4969309;28;20033;-64
2023/10/28 05:52:20;;;;;;;2.13;0.63;;;;;;;;;;4966059;28;20021;-65
2023/10/28 05:54:45;;;;;;;1.42;0.68;;;;;;;;;;4969266;28;20077;-65
2023/10/28 05:57:11;;;;;;;1.55;0.70;;;;;;;;;;4971460;28;20850;-65
2023/10/28 05:59:36;;;;;;;1.38;0.60;;;;;;;;;;4968691;28;20933;-65
2023/10/28 06:02:03;;;;;;;2.13;0.50;;;;;;;;;;4968581;28;20065;-65
2023/10/28 06:04:31;;;;;;;1.23;0.50;;;;;;;;;;4958585;28;21212;-65
2023/10/28 06:06:56;;;;;;;1.23;0.50;;;;;;;;;;4968204;28;20033;-65
2023/10/28 06:09:23;;;;;;;1.15;0.50;;;;;;;;;;4968848;28;20036;-65
2023/10/28 06:11:50;;;;;;;1.35;0.50;;;;;;;;;;4968583;28;20034;-66
2023/10/28 06:14:15;;;;;;;2.33;0.70;;;;;;;;;;4967971;28;20144;-65
2023/10/28 06:16:40;;;;;;;2.30;0.80;;;;;;;;;;4966930;28;20033;-65
2023/10/28 06:19:05;;;;;;;0.63;0.25;;;;;;;;;;4968377;28;20061;-66
2023/10/28 06:21:32;;;;;;;0.77;0.40;;;;;;;;;;4967046;28;20137;-65
2023/10/28 06:23:58;;;;;;;2.22;0.45;;;;;;;;;;4968425;28;20030;-65
2023/10/28 06:26:23;;;;;;;2.60;0.82;;;;;;;;;;4968234;28;20364;-66
2023/10/28 06:28:49;;;;;;;2.30;0.70;;;;;;;;;;4968686;28;20149;-66
2023/10/28 06:31:15;;;;;;;4.00;1.02;;;;;;;;;;4970128;28;20034;-66
2023/10/28 06:33:40;;;;;;;1.58;0.65;;;;;;;;;;4969792;28;20026;-66
2023/10/28 06:36:05;;;;;;;1.45;0.57;;;;;;;;;;4965656;28;20022;-66
2023/10/28 06:38:31;;;;;;;2.75;0.80;;;;;;;;;;4969143;28;20048;-66
2023/10/28 06:40:57;;;;;;;1.60;0.50;;;;;;;;;;4964059;28;20062;-65
2023/10/28 06:43:23;;;;;;;1.67;0.70;;;;;;;;;;4977408;28;20032;-66
2023/10/28 06:45:48;;;;;;;3.65;1.02;;;;;;;;;;4968956;28;20026;-65
2023/10/28 06:48:15;;;;;;;2.08;0.75;;;;;;;;;;4965379;28;20125;-66
2023/10/28 06:50:40;;;;;;;1.38;0.50;;;;;;;;;;4960905;28;20022;-67
2023/10/28 06:53:05;;;;;;;1.35;0.60;;;;;;;;;;4970359;28;20029;-66
2023/10/28 06:55:31;;;;;;;2.47;0.50;;;;;;;;;;4971236;28;20018;-66
2023/10/28 06:57:57;;;;;;;2.10;0.52;;;;;;;;;;4972366;28;20810;-66
2023/10/28 07:00:28;;;;;;;2.03;0.68;;;;;;;;;;4970768;28;20540;-66
2023/10/28 07:02:54;;;;;;;1.15;0.50;;;;;;;;;;4973333;28;20052;-66
2023/10/28 07:05:19;;;;;;;2.00;0.50;;;;;;;;;;4971751;28;20025;-66
2023/10/28 07:07:45;;;;;;;3.45;0.68;;;;;;;;;;4972183;28;20026;-65
2023/10/28 07:10:10;;;;;;;2.90;0.95;;;;;;;;;;4967003;28;20022;-66
2023/10/28 07:12:35;;;;;;;2.58;0.55;;;;;;;;;;4969441;28;20092;-66
2023/10/28 07:15:00;;;;;;;1.20;0.40;;;;;;;;;;4972940;28;20956;-66
2023/10/28 07:17:26;;;;;;;1.67;0.60;;;;;;;;;;4970592;28;21173;-66
2023/10/28 07:19:54;;;;;;;3.28;0.65;;;;;;;;;;4974392;28;20128;-66
2023/10/28 07:22:20;;;;;;;1.98;0.60;;;;;;;;;;4970453;28;20912;-66
2023/10/28 07:24:45;;;;;;;5.80;0.63;;;;;;;;;;4970122;28;20046;-66
2023/10/28 07:27:11;;;;;;;1.83;0.75;;;;;;;;;;4972588;28;20112;-66
2023/10/28 07:29:36;;;;;;;1.35;0.60;;;;;;;;;;4971794;28;20076;-66
2023/10/28 07:32:02;;;;;;;2.58;0.73;;;;;;;;;;4970515;28;20129;-65
2023/10/28 07:34:27;;;;;;;1.85;0.50;;;;;;;;;;4971054;28;20014;-66
2023/10/28 07:36:53;;;;;;;2.27;0.30;;;;;;;;;;4972191;28;20080;-66
2023/10/28 07:39:19;;;;;;;3.65;0.50;;;;;;;;;;4971782;28;20279;-65
2023/10/28 07:41:44;;;;;;;2.60;0.88;;;;;;;;;;4960457;28;20903;-66
2023/10/28 07:44:10;;;;;;;4.60;0.85;;;;;;;;;;4963684;28;20082;-66
2023/10/28 07:46:35;;;;;;;2.40;0.57;;;;;;;;;;4959929;28;20036;-66
2023/10/28 07:49:00;;;;;;;2.00;0.55;;;;;;;;;;4963315;28;20128;-66
2023/10/28 07:51:26;;;;;;;2.83;0.60;;;;;;;;;;4959878;28;20078;-67
2023/10/28 07:53:52;;;;;;;1.40;0.47;;;;;;;;;;4968519;28;20045;-65
2023/10/28 07:56:17;;;;;;;2.47;0.75;;;;;;;;;;4970365;28;20053;-66
2023/10/28 07:58:43;;;;;;;1.70;0.73;;;;;;;;;;4969095;28;20028;-66
2023/10/28 08:01:17;;;;;;;4.93;1.05;;;;;;;;;;4971444;28;20080;-65
2023/10/28 08:03:45;;;;;;;1.65;0.70;;;;;;;;;;4996625;28;20105;-65
2023/10/28 08:06:11;;;;;;;2.75;0.80;;;;;;;;;;4968237;28;20966;-63
2023/10/28 08:08:36;;;;;;;2.42;0.77;;;;;;;;;;4969245;28;20017;-63
2023/10/28 08:11:06;;;;;;;1.40;0.55;;;;;;;;;;4966741;28;20145;-62
2023/10/28 08:13:32;;;;;;;3.58;0.95;;;;;;;;;;4971803;28;20018;-64
2023/10/28 08:15:57;;;;;;;2.42;0.60;;;;;;;;;;4972482;28;20030;-65
2023/10/28 08:18:22;;;;;;;1.55;0.45;;;;;;;;;;4976796;28;20123;-65
2023/10/28 08:20:48;;;;;;;1.38;0.45;;;;;;;;;;4971817;28;20029;-65
2023/10/28 08:23:13;;;;;;;1.70;0.75;;;;;;;;;;4970822;28;20045;-65
2023/10/28 08:25:38;;;;;;;2.90;0.83;;;;;;;;;;4968793;28;20072;-65
2023/10/28 08:28:03;;;;;;;5.97;1.43;;;;;;;;;;4979361;28;20400;-65
2023/10/28 08:30:29;;;;;;;2.05;0.75;;;;;;;;;;4970055;28;20279;-65
2023/10/28 08:32:54;;;;;;;2.63;1.00;;;;;;;;;;4965449;28;20025;-65
2023/10/28 08:35:19;;;;;;;1.98;0.70;;;;;;;;;;4970579;28;20029;-65
2023/10/28 08:37:46;;;;;;;3.58;0.68;;;;;;;;;;4975080;28;20084;-65
2023/10/28 08:40:11;;;;;;;2.65;0.63;;;;;;;;;;4970541;28;20030;-66
2023/10/28 08:42:37;;;;;;;2.85;0.90;;;;;;;;;;4970832;28;20845;-65
2023/10/28 08:45:03;;;;;;;1.83;0.57;;;;;;;;;;4973334;28;20032;-65
2023/10/28 08:47:31;;;;;;;1.80;0.55;;;;;;;;;;4969534;28;20936;-65
2023/10/28 08:49:58;;;;;;;1.92;0.47;;;;;;;;;;4986409;28;20038;-65
2023/10/28 08:52:23;;;;;;;6.95;0.80;;;;;;;;;;4969230;28;20022;-65
2023/10/28 08:54:49;;;;;;;1.23;0.47;;;;;;;;;;5000196;28;20054;-65
2023/10/28 08:57:15;;;;;;;1.75;0.30;;;;;;;;;;4970857;28;20235;-65
2023/10/28 08:59:41;;;;;;;5.15;0.85;;;;;;;;;;4957646;28;20049;-65
2023/10/28 09:02:09;;;;;;;3.42;1.00;;;;;;;;;;4968570;28;20141;-65
2023/10/28 09:04:35;;;;;;;1.58;0.70;;;;;;;;;;4971317;28;20160;-65
2023/10/28 09:07:02;;;;;;;4.15;0.88;;;;;;;;;;4970057;28;20990;-65
2023/10/28 09:09:27;;;;;;;2.20;0.63;;;;;;;;;;4969833;28;20029;-65
2023/10/28 09:11:55;;;;;;;2.05;0.60;;;;;;;;;;4968726;28;20372;-65
2023/10/28 09:14:21;;;;;;;3.30;0.80;;;;;;;;;;4968038;28;20030;-65
2023/10/28 09:16:46;;;;;;;2.85;0.90;;;;;;;;;;4958392;28;20030;-65
2023/10/28 09:19:21;;;;;;;4.05;0.82;;;;;;;;;;4992219;28;20037;-66
2023/10/28 09:21:49;;;;;;;2.60;0.85;;;;;;;;;;5011840;28;20033;-66
2023/10/28 09:24:15;;;;;;;3.67;1.08;;;;;;;;;;5008684;28;20080;-66
2023/10/28 09:26:40;;;;;;;3.75;0.98;;;;;;;;;;5011803;28;20476;-65
2023/10/28 09:29:05;;;;;;;3.00;0.73;;;;;;;;;;5011190;28;20037;-66
2023/10/28 09:31:32;;;;;;;2.47;0.73;;;;;;;;;;5011548;28;20073;-65
2023/10/28 09:33:57;;;;;;;2.88;0.55;;;;;;;;;;5011158;28;20287;-66
2023/10/28 09:36:23;;;;;;;3.10;0.70;;;;;;;;;;5012101;28;20018;-65
2023/10/28 09:38:49;;;;;;;2.05;0.70;;;;;;;;;;5011133;28;20360;-66
2023/10/28 09:41:16;;;;;;;2.60;0.70;;;;;;;;;;5012100;28;20026;-65
2023/10/28 09:43:42;;;;;;;5.97;1.25;;;;;;;;;;5015544;28;20101;-66
2023/10/28 09:46:08;;;;;;;2.22;0.73;;;;;;;;;;5011162;28;20491;-65
2023/10/28 09:48:36;;;;;;;2.47;0.63;;;;;;;;;;5011925;28;20018;-65
2023/10/28 09:51:01;;;;;;;2.85;0.88;;;;;;;;;;5002640;28;20030;-66
2023/10/28 09:53:30;;;;;;;4.43;0.90;;;;;;;;;;5010908;28;20033;-65
2023/10/28 09:55:56;;;;;;;4.93;1.40;;;;;;;;;;5011172;28;20100;-65
2023/10/28 09:58:24;;;;;;;2.83;0.88;;;;;;;;;;5010805;28;20383;-66
2023/10/28 10:00:53;;;;;;;2.92;0.60;;;;;;;;;;5011802;28;20025;-65
2023/10/28 10:03:21;;;;;;;7.82;1.00;;;;;;;;;;5011552;28;20056;-65
2023/10/28 10:05:47;;;;;;;3.33;0.68;;;;;;;;;;5011059;28;20034;-65
2023/10/28 10:08:18;;;;;;;4.47;0.95;;;;;;;;;;5010039;28;20512;-66
2023/10/28 10:10:45;;;;;;;6.55;1.27;;;;;;;;;;5011210;28;20026;-65
2023/10/28 10:13:10;;;;;;;2.10;1.00;;;;;;;;;;5007971;28;20536;-67
2023/10/28 10:15:38;;;;;;;5.72;0.88;;;;;;;;;;5002961;28;20029;-65
2023/10/28 10:18:06;;;;;;;5.25;1.08;;;;;;;;;;5009373;28;20017;-66
2023/10/28 10:20:32;;;;;;;4.47;1.08;;;;;;;;;;5006624;28;20022;-65
2023/10/28 10:23:00;;;;;;;4.68;1.27;;;;;;;;;;4999489;28;20492;-66
2023/10/28 10:25:45;;;;;;;3.88;1.40;;;;;;;;;;5005665;28;20133;-65
2023/10/28 10:28:15;;;;;;;7.20;1.30;;;;;;;;;;5011210;28;20042;-65
2023/10/28 10:30:42;;;;;;;2.83;0.73;;;;;;;;;;5012317;28;20018;-65
2023/10/28 10:33:07;;;;;;;6.50;1.23;;;;;;;;;;5011083;28;20046;-66
2023/10/28 10:35:33;;;;;;;6.95;1.45;;;;;;;;;;5011044;28;20061;-65
2023/10/28 10:38:02;;;;;;;4.47;0.90;;;;;;;;;;5011423;28;20546;-66
2023/10/28 10:40:31;;;;;;;4.95;1.25;;;;;;;;;;5010734;28;20117;-65
2023/10/28 10:42:57;;;;;;;6.05;1.25;;;;;;;;;;5010404;28;20473;-65
2023/10/28 10:45:22;;;;;;;4.53;1.20;;;;;;;;;;5010411;28;20037;-65
2023/10/28 10:47:48;;;;;;;7.57;1.63;;;;;;;;;;5010674;28;20026;-66
2023/10/28 10:50:14;;;;;;;4.13;1.20;;;;;;;;;;5008231;28;20529;-66
2023/10/28 10:52:39;;;;;;;8.88;1.63;;;;;;;;;;5011121;28;20105;-66
2023/10/28 10:55:05;;;;;;;4.93;1.38;;;;;;;;;;5010963;28;20468;-65
2023/10/28 10:57:31;;;;;;;4.10;1.23;;;;;;;;;;5010179;28;20101;-66
2023/10/28 10:59:58;;;;;;;4.70;1.15;;;;;;;;;;5010339;28;20022;-66
2023/10/28 11:02:24;;;;;;;4.53;1.10;;;;;;;;;;5011187;28;20072;-65
2023/10/28 11:04:49;;;;;;;6.07;1.33;;;;;;;;;;5010528;28;20038;-66
2023/10/28 11:07:15;;;;;;;5.65;1.42;;;;;;;;;;5010063;28;20041;-66
2023/10/28 11:09:42;;;;;;;4.60;0.83;;;;;;;;;;5010367;28;20064;-66
2023/10/28 11:12:07;;;;;;;5.22;1.48;;;;;;;;;;5010138;28;20631;-66
2023/10/28 11:14:32;;;;;;;7.40;1.88;;;;;;;;;;5010562;28;20030;-65
2023/10/28 11:16:58;;;;;;;7.72;1.35;;;;;;;;;;5010283;28;20133;-66
2023/10/28 11:19:23;;;;;;;5.93;1.05;;;;;;;;;;5010055;28;20048;-66
2023/10/28 11:21:48;;;;;;;7.30;1.45;;;;;;;;;;5010054;28;20026;-65
2023/10/28 11:24:15;;;;;;;4.85;1.38;;;;;;;;;;5009256;28;20026;-65
2023/10/28 11:26:44;;;;;;;3.53;1.08;;;;;;;;;;5012753;28;20054;-65
2023/10/28 11:29:09;;;;;;;4.68;0.98;;;;;;;;;;5013060;28;20091;-66
2023/10/28 11:31:39;;;;;;;6.05;1.73;;;;;;;;;;5012672;28;20507;-65
2023/10/28 11:34:05;;;;;;;6.05;1.13;;;;;;;;;;5012845;28;20021;-65
2023/10/28 11:36:33;;;;;;;6.40;1.52;;;;;;;;;;5012776;28;20494;-66
2023/10/28 11:39:07;;;;;;;2.65;0.98;;;;;;;;;;5013366;28;20041;-65
2023/10/28 11:41:32;;;;;;;5.70;1.30;;;;;;;;;;5013286;28;20109;-65
2023/10/28 11:43:57;;;;;;;2.95;1.15;;;;;;;;;;5012975;28;20113;-66
2023/10/28 11:46:24;;;;;;;4.70;1.10;;;;;;;;;;5012778;28;20030;-66
2023/10/28 11:48:49;;;;;;;3.90;1.48;;;;;;;;;;5013126;28;20272;-66
2023/10/28 11:51:14;;;;;;;4.38;1.40;;;;;;;;;;5001978;28;20473;-67
2023/10/28 11:53:47;;;;;;;5.53;1.55;;;;;;;;;;5012590;28;20022;-65
2023/10/28 11:56:13;;;;;;;3.40;1.00;;;;;;;;;;5013186;28;20026;-66
2023/10/28 11:58:38;;;;;;;7.70;1.15;;;;;;;;;;5013331;28;20638;-66
2023/10/28 12:01:03;;;;;;;2.95;0.88;;;;;;;;;;5013538;28;20152;-65
2023/10/28 12:03:29;;;;;;;3.80;0.90;;;;;;;;;;5013191;28;20033;-66
2023/10/28 12:05:54;;;;;;;4.73;1.00;;;;;;;;;;5012529;28;20026;-66
2023/10/28 12:08:20;;;;;;;3.47;1.33;;;;;;;;;;5012597;28;21047;-65
2023/10/28 12:10:46;;;;;;;4.70;1.25;;;;;;;;;;5011844;28;20578;-66
2023/10/28 12:13:11;;;;;;;4.70;0.95;;;;;;;;;;5012893;28;20026;-65
2023/10/28 12:15:37;;;;;;;3.63;1.10;;;;;;;;;;5011795;28;20022;-66
2023/10/28 12:18:02;;;;;;;3.38;1.10;;;;;;;;;;5012215;28;20461;-66
2023/10/28 12:20:27;;;;;;;3.40;0.90;;;;;;;;;;5011840;28;20026;-66
2023/10/28 12:22:53;;;;;;;2.83;0.87;;;;;;;;;;5011614;28;20026;-66
2023/10/28 12:25:18;;;;;;;2.33;0.95;;;;;;;;;;5011684;28;20299;-65
2023/10/28 12:27:44;;;;;;;5.97;0.90;;;;;;;;;;5011297;28;20439;-64
2023/10/28 12:30:12;;;;;;;3.45;0.80;;;;;;;;;;5010898;28;20297;-64
2023/10/28 12:32:39;;;;;;;3.53;0.88;;;;;;;;;;5004244;28;20479;-66
2023/10/28 12:35:04;;;;;;;6.82;1.20;;;;;;;;;;5012330;28;20026;-66
2023/10/28 12:37:29;;;;;;;4.07;1.30;;;;;;;;;;5006235;28;20038;-67
2023/10/28 12:39:55;;;;;;;4.70;0.77;;;;;;;;;;5013048;28;20436;-66
2023/10/28 12:42:20;;;;;;;4.13;1.30;;;;;;;;;;5006807;28;20328;-65
2023/10/28 12:44:45;;;;;;;3.92;1.00;;;;;;;;;;5012315;28;20038;-66
2023/10/28 12:47:10;;;;;;;2.47;0.97;;;;;;;;;;5009311;28;20475;-66
2023/10/28 12:49:36;;;;;;;2.17;0.90;;;;;;;;;;5013057;28;20754;-66
2023/10/28 12:52:01;;;;;;;5.93;1.10;;;;;;;;;;5000307;28;20053;-66
2023/10/28 12:54:27;;;;;;;4.57;0.88;;;;;;;;;;5012022;28;20388;-65
2023/10/28 12:56:53;;;;;;;4.13;1.15;;;;;;;;;;5002044;28;20026;-66
2023/10/28 12:59:18;;;;;;;3.45;1.10;;;;;;;;;;5007663;28;20022;-66
2023/10/28 13:01:43;;;;;;;3.63;0.80;;;;;;;;;;5011154;28;20029;-67
2023/10/28 13:04:08;;;;;;;2.73;0.80;;;;;;;;;;5011189;28;20037;-66
2023/10/28 13:06:36;;;;;;;4.90;0.90;;;;;;;;;;5008794;28;20262;-65
2023/10/28 13:09:05;;;;;;;4.10;1.05;;;;;;;;;;4974752;28;20295;-66
2023/10/28 13:11:30;;;;;;;3.90;1.10;;;;;;;;;;4974683;28;20240;-65
2023/10/28 13:13:55;;;;;;;3.42;0.95;;;;;;;;;;4968600;28;20555;-65
2023/10/28 13:16:20;;;;;;;2.63;0.83;;;;;;;;;;4969437;28;20120;-65
2023/10/28 13:18:46;;;;;;;1.93;0.83;;;;;;;;;;4970292;28;20426;-65
2023/10/28 13:21:13;;;;;;;2.03;0.47;;;;;;;;;;4971603;28;20315;-65
2023/10/28 13:23:38;;;;;;;3.50;0.93;;;;;;;;;;4997410;28;20065;-65
2023/10/28 13:26:03;;;;;;;2.10;0.73;;;;;;;;;;4970047;28;20065;-64
2023/10/28 13:28:28;;;;;;;2.28;0.63;;;;;;;;;;4971062;28;20283;-65
2023/10/28 13:30:54;;;;;;;2.88;0.60;;;;;;;;;;4970519;28;20120;-65
2023/10/28 13:33:19;;;;;;;3.03;0.57;;;;;;;;;;4967981;28;20029;-65
2023/10/28 13:35:44;;;;;;;1.80;0.40;;;;;;;;;;4991430;28;20036;-66
2023/10/28 13:38:11;;;;;;;1.60;0.50;;;;;;;;;;5010302;28;20691;-66
2023/10/28 13:40:37;;;;;;;1.27;0.50;;;;;;;;;;5010912;28;20049;-64
2023/10/28 13:43:02;;;;;;;4.25;0.65;;;;;;;;;;5002896;28;20436;-65
2023/10/28 13:45:28;;;;;;;4.10;0.80;;;;;;;;;;4996599;28;20034;-66
2023/10/28 13:47:54;;;;;;;3.30;0.65;;;;;;;;;;4957455;28;20174;-65
2023/10/28 13:50:19;;;;;;;1.73;0.52;;;;;;;;;;4968131;28;20091;-62
2023/10/28 13:52:44;;;;;;;2.80;0.85;;;;;;;;;;4965995;28;20842;-61
2023/10/28 13:55:10;;;;;;;5.28;0.52;;;;;;;;;;4978296;28;20013;-61
2023/10/28 13:57:35;;;;;;;1.60;0.70;;;;;;;;;;4964251;28;20144;-61
2023/10/28 14:00:05;;;;;;;2.80;0.55;;;;;;;;;;4967306;28;20053;-63
2023/10/28 14:02:31;;;;;;;1.98;0.70;;;;;;;;;;4967289;28;20036;-65
2023/10/28 14:04:56;;;;;;;2.58;0.75;;;;;;;;;;4974271;28;20145;-64
2023/10/28 14:07:21;;;;;;;1.70;0.50;;;;;;;;;;4968665;28;20037;-64
2023/10/28 14:09:47;;;;;;;5.35;0.93;;;;;;;;;;4968352;28;21233;-64
2023/10/28 14:12:12;;;;;;;3.67;0.70;;;;;;;;;;4960891;28;20064;-63
2023/10/28 14:14:38;;;;;;;3.20;0.82;;;;;;;;;;4972262;28;20072;-64
2023/10/28 14:17:04;;;;;;;2.38;0.85;;;;;;;;;;4971352;28;20868;-64
2023/10/28 14:19:29;;;;;;;3.00;1.00;;;;;;;;;;4963895;28;20145;-63
2023/10/28 14:21:54;;;;;;;2.60;0.85;;;;;;;;;;4962641;28;20125;-64
2023/10/28 14:24:20;;;;;;;2.30;0.50;;;;;;;;;;4965018;28;20985;-61
2023/10/28 14:26:46;;;;;;;4.88;0.80;;;;;;;;;;4962705;28;21144;-61
2023/10/28 14:29:11;;;;;;;4.60;0.95;;;;;;;;;;4971046;28;20029;-64
2023/10/28 14:31:37;;;;;;;2.07;0.80;;;;;;;;;;4970445;28;20049;-63
2023/10/28 14:34:03;;;;;;;2.33;0.50;;;;;;;;;;4968482;28;20284;-63
2023/10/28 14:36:29;;;;;;;1.40;0.50;;;;;;;;;;4968035;28;20867;-63